Time;durP1;ratioP1;P1;durP2;ratioP2;P2;SDS_P1;SDS_P2;PMS_P1;PMS_P2;Temp;Humidity;BMP_temperature;BMP_pressure;BME280_temperature;BME280_humidity;BME280_pressure;Samples;Min_cycle;Max_cycle;Signal;HPM_P1;HPM_P2
2023/04/26 00:01:38;;;;;;;5.97;3.50;;;;;;;;;;4995745;28;20214;-80
2023/04/26 00:04:03;;;;;;;4.70;4.20;;;;;;;;;;4997040;28;20189;-80
2023/04/26 00:06:28;;;;;;;5.80;4.90;;;;;;;;;;4992586;28;20196;-80
2023/04/26 00:08:54;;;;;;;11.17;4.47;;;;;;;;;;4997586;28;20209;-80
2023/04/26 00:11:19;;;;;;;4.60;4.20;;;;;;;;;;4996659;28;20266;-80
2023/04/26 00:13:44;;;;;;;7.90;4.47;;;;;;;;;;4995849;28;20190;-80
2023/04/26 00:16:10;;;;;;;5.60;4.07;;;;;;;;;;5021998;28;20182;-80
2023/04/26 00:18:36;;;;;;;6.70;4.10;;;;;;;;;;4998871;28;20250;-80
2023/04/26 00:21:01;;;;;;;5.73;3.43;;;;;;;;;;5006414;28;20295;-82
2023/04/26 00:23:26;;;;;;;5.40;3.40;;;;;;;;;;5031446;28;20175;-82
2023/04/26 00:25:52;;;;;;;8.10;3.80;;;;;;;;;;5033312;28;20206;-82
2023/04/26 00:28:17;;;;;;;6.07;3.60;;;;;;;;;;5017475;28;20288;-83
2023/04/26 00:30:46;;;;;;;5.43;3.23;;;;;;;;;;5021221;28;20185;-83
2023/04/26 00:33:11;;;;;;;5.60;3.57;;;;;;;;;;5020411;28;20180;-83
2023/04/26 00:35:37;;;;;;;6.77;3.30;;;;;;;;;;5029021;28;20183;-83
2023/04/26 00:38:02;;;;;;;3.90;3.60;;;;;;;;;;5012125;28;20271;-83
2023/04/26 00:40:27;;;;;;;7.27;3.83;;;;;;;;;;5035246;28;20236;-83
2023/04/26 00:42:56;;;;;;;5.33;3.83;;;;;;;;;;5015914;28;20204;-83
2023/04/26 00:45:22;;;;;;;6.03;5.27;;;;;;;;;;5011266;28;20206;-83
2023/04/26 00:47:47;;;;;;;6.50;3.30;;;;;;;;;;5015559;28;20179;-83
2023/04/26 00:50:12;;;;;;;5.27;3.90;;;;;;;;;;5013757;28;20184;-82
2023/04/26 00:52:38;;;;;;;5.47;3.80;;;;;;;;;;5022897;28;20172;-83
2023/04/26 00:55:03;;;;;;;3.97;2.90;;;;;;;;;;5008470;28;20175;-83
2023/04/26 00:57:29;;;;;;;4.93;3.47;;;;;;;;;;5032100;28;20189;-83
2023/04/26 00:59:55;;;;;;;5.67;3.73;;;;;;;;;;5017719;28;20197;-83
2023/04/26 01:02:20;;;;;;;6.10;3.70;;;;;;;;;;5013253;28;20202;-83
2023/04/26 01:04:46;;;;;;;5.37;3.70;;;;;;;;;;5019608;28;20190;-82
2023/04/26 01:07:12;;;;;;;8.13;3.90;;;;;;;;;;5013554;28;20183;-83
2023/04/26 01:09:38;;;;;;;4.97;4.03;;;;;;;;;;5018275;28;20172;-83
2023/04/26 01:12:03;;;;;;;3.57;3.27;;;;;;;;;;5015325;28;20251;-83
2023/04/26 01:14:29;;;;;;;5.17;3.30;;;;;;;;;;5015949;28;20175;-83
2023/04/26 01:16:55;;;;;;;4.90;3.47;;;;;;;;;;5016235;28;20182;-82
2023/04/26 01:19:22;;;;;;;3.83;3.40;;;;;;;;;;5015161;28;20272;-82
2023/04/26 01:21:47;;;;;;;7.93;4.30;;;;;;;;;;5017259;28;20242;-83
2023/04/26 01:24:12;;;;;;;3.70;3.17;;;;;;;;;;5019927;28;20178;-83
2023/04/26 01:26:44;;;;;;;4.23;3.10;;;;;;;;;;5022267;28;20194;-83
2023/04/26 01:29:13;;;;;;;5.70;3.30;;;;;;;;;;5016419;28;20179;-82
2023/04/26 01:31:38;;;;;;;5.73;3.47;;;;;;;;;;5029374;28;20226;-83
2023/04/26 01:34:03;;;;;;;4.57;3.53;;;;;;;;;;5034537;28;20174;-83
2023/04/26 01:36:28;;;;;;;5.57;3.97;;;;;;;;;;5016057;28;20206;-82
2023/04/26 01:38:54;;;;;;;6.23;4.20;;;;;;;;;;5017601;28;20181;-83
2023/04/26 01:41:19;;;;;;;5.83;4.23;;;;;;;;;;5015862;28;20189;-82
2023/04/26 01:43:44;;;;;;;5.90;3.57;;;;;;;;;;5013138;28;20191;-82
2023/04/26 01:46:10;;;;;;;5.80;3.53;;;;;;;;;;5029058;28;20202;-82
2023/04/26 01:48:35;;;;;;;7.40;4.80;;;;;;;;;;5021695;28;20177;-82
2023/04/26 01:51:00;;;;;;;7.97;5.17;;;;;;;;;;5014352;28;20168;-82
2023/04/26 01:53:25;;;;;;;8.60;4.80;;;;;;;;;;5020881;28;20251;-82
2023/04/26 01:55:51;;;;;;;7.07;4.47;;;;;;;;;;5030207;28;20196;-82
2023/04/26 01:58:16;;;;;;;6.27;4.30;;;;;;;;;;5019944;28;20181;-82
2023/04/26 02:00:41;;;;;;;7.50;4.47;;;;;;;;;;5016301;28;20182;-83
2023/04/26 02:03:06;;;;;;;5.27;4.40;;;;;;;;;;5032309;28;20202;-83
2023/04/26 02:05:32;;;;;;;5.93;4.53;;;;;;;;;;5015200;28;20205;-82
2023/04/26 02:07:57;;;;;;;5.03;4.53;;;;;;;;;;5035537;28;20175;-80
2023/04/26 02:10:22;;;;;;;8.67;4.83;;;;;;;;;;5034004;28;20263;-80
2023/04/26 02:12:47;;;;;;;6.33;5.27;;;;;;;;;;5018312;28;20183;-82
2023/04/26 02:15:13;;;;;;;7.93;4.70;;;;;;;;;;5012129;28;20193;-83
2023/04/26 02:17:38;;;;;;;7.07;4.50;;;;;;;;;;5017135;28;20183;-83
2023/04/26 02:20:04;;;;;;;10.03;4.63;;;;;;;;;;5004970;28;20235;-82
2023/04/26 02:22:30;;;;;;;8.40;5.03;;;;;;;;;;5040251;28;20179;-82
2023/04/26 02:24:55;;;;;;;6.70;4.87;;;;;;;;;;5013543;28;20205;-82
2023/04/26 02:27:20;;;;;;;8.40;5.20;;;;;;;;;;5017688;28;20175;-83
2023/04/26 02:29:46;;;;;;;7.23;4.63;;;;;;;;;;5014718;28;20215;-83
2023/04/26 02:32:11;;;;;;;8.23;5.37;;;;;;;;;;5017690;28;20213;-82
2023/04/26 02:34:37;;;;;;;8.67;4.83;;;;;;;;;;5015414;28;20182;-82
2023/04/26 02:37:03;;;;;;;8.33;5.73;;;;;;;;;;5019726;28;20173;-82
2023/04/26 02:39:28;;;;;;;8.83;5.90;;;;;;;;;;5016163;28;20171;-82
2023/04/26 02:41:53;;;;;;;6.50;5.70;;;;;;;;;;5020724;28;20173;-82
2023/04/26 02:44:18;;;;;;;7.23;5.40;;;;;;;;;;5033715;28;20181;-82
2023/04/26 02:46:44;;;;;;;8.60;5.90;;;;;;;;;;5028130;28;20199;-82
2023/04/26 02:49:09;;;;;;;5.57;4.70;;;;;;;;;;5013566;28;20199;-82
2023/04/26 02:51:34;;;;;;;9.30;5.73;;;;;;;;;;5015669;28;20176;-82
2023/04/26 02:53:59;;;;;;;6.73;5.53;;;;;;;;;;5010609;28;20189;-82
2023/04/26 02:56:25;;;;;;;8.50;5.73;;;;;;;;;;5015260;28;20383;-83
2023/04/26 02:58:50;;;;;;;7.33;5.23;;;;;;;;;;5019569;28;20182;-82
2023/04/26 03:01:16;;;;;;;9.10;6.20;;;;;;;;;;5031344;28;20185;-82
2023/04/26 03:03:42;;;;;;;6.80;5.93;;;;;;;;;;5026873;28;20208;-82
2023/04/26 03:06:07;;;;;;;9.23;5.67;;;;;;;;;;5034706;28;20287;-82
2023/04/26 03:08:34;;;;;;;11.50;7.10;;;;;;;;;;5014680;28;20287;-80
2023/04/26 03:10:59;;;;;;;8.17;5.70;;;;;;;;;;5015893;28;20236;-80
2023/04/26 03:13:24;;;;;;;8.83;6.90;;;;;;;;;;5004540;28;20178;-80
2023/04/26 03:15:51;;;;;;;11.17;6.53;;;;;;;;;;5033999;28;20186;-82
2023/04/26 03:18:16;;;;;;;9.13;5.80;;;;;;;;;;5033763;28;20266;-83
2023/04/26 03:20:42;;;;;;;7.90;6.77;;;;;;;;;;5019628;28;20369;-82
2023/04/26 03:23:07;;;;;;;6.43;5.37;;;;;;;;;;5026583;28;20227;-82
2023/04/26 03:25:32;;;;;;;6.57;5.70;;;;;;;;;;5034636;28;20195;-83
2023/04/26 03:27:58;;;;;;;8.43;6.70;;;;;;;;;;5012684;28;20347;-82
2023/04/26 03:30:23;;;;;;;7.93;5.33;;;;;;;;;;5018350;28;20176;-83
2023/04/26 03:32:48;;;;;;;9.80;6.30;;;;;;;;;;5014532;28;20174;-83
2023/04/26 03:35:15;;;;;;;18.50;16.70;;;;;;;;;;5026141;28;20215;-82
2023/04/26 03:37:40;;;;;;;10.60;7.07;;;;;;;;;;5017148;28;20304;-82
2023/04/26 03:40:07;;;;;;;7.90;6.60;;;;;;;;;;5019677;28;20202;-83
2023/04/26 03:42:32;;;;;;;6.70;5.53;;;;;;;;;;5018606;28;20213;-82
2023/04/26 03:44:58;;;;;;;8.10;5.10;;;;;;;;;;5037082;28;20253;-82
2023/04/26 03:47:23;;;;;;;7.83;5.83;;;;;;;;;;5023209;28;20180;-82
2023/04/26 03:49:48;;;;;;;7.60;5.17;;;;;;;;;;5025469;28;20210;-83
2023/04/26 03:52:13;;;;;;;6.90;5.60;;;;;;;;;;5036151;28;20279;-83
2023/04/26 03:54:38;;;;;;;6.47;4.90;;;;;;;;;;5038672;28;20239;-82
2023/04/26 03:57:04;;;;;;;8.23;6.27;;;;;;;;;;5021291;28;20184;-83
2023/04/26 03:59:29;;;;;;;7.20;5.97;;;;;;;;;;5014585;28;20187;-83
2023/04/26 04:01:54;;;;;;;8.73;5.80;;;;;;;;;;5007718;28;20192;-82
2023/04/26 04:04:19;;;;;;;7.77;5.00;;;;;;;;;;5018163;28;20184;-82
2023/04/26 04:06:45;;;;;;;11.70;5.37;;;;;;;;;;5039680;28;20270;-82
2023/04/26 04:09:10;;;;;;;7.60;5.97;;;;;;;;;;5018442;28;20181;-83
2023/04/26 04:11:35;;;;;;;9.43;6.20;;;;;;;;;;5019891;28;20177;-83
2023/04/26 04:14:01;;;;;;;7.60;5.50;;;;;;;;;;5044092;28;20168;-82
2023/04/26 04:16:27;;;;;;;6.53;5.43;;;;;;;;;;5038846;28;20182;-83
2023/04/26 04:18:52;;;;;;;10.93;7.57;;;;;;;;;;5039409;28;20171;-82
2023/04/26 04:21:17;;;;;;;9.17;6.17;;;;;;;;;;5033757;28;20230;-82
2023/04/26 04:23:43;;;;;;;8.00;5.97;;;;;;;;;;5006651;28;20213;-82
2023/04/26 04:26:08;;;;;;;8.33;6.03;;;;;;;;;;5005165;28;20215;-82
2023/04/26 04:28:34;;;;;;;7.07;5.47;;;;;;;;;;5016193;28;20179;-82
2023/04/26 04:31:00;;;;;;;7.83;6.67;;;;;;;;;;5020501;28;20180;-82
2023/04/26 04:33:27;;;;;;;9.17;6.67;;;;;;;;;;5037042;28;20170;-82
2023/04/26 04:35:53;;;;;;;7.80;5.93;;;;;;;;;;5020247;28;20201;-83
2023/04/26 04:38:18;;;;;;;6.60;5.47;;;;;;;;;;5036432;28;20207;-82
2023/04/26 04:40:46;;;;;;;6.83;5.90;;;;;;;;;;5040745;28;20260;-80
2023/04/26 04:43:11;;;;;;;11.07;7.60;;;;;;;;;;5012481;28;20278;-82
2023/04/26 04:45:37;;;;;;;9.17;6.80;;;;;;;;;;5033241;28;20299;-83
2023/04/26 04:48:04;;;;;;;13.67;7.23;;;;;;;;;;5031387;28;20320;-83
2023/04/26 04:50:30;;;;;;;12.30;6.50;;;;;;;;;;5019379;28;20172;-82
2023/04/26 04:52:56;;;;;;;9.63;6.27;;;;;;;;;;5015935;28;20171;-82
2023/04/26 04:55:21;;;;;;;9.13;6.87;;;;;;;;;;5026616;28;20185;-82
2023/04/26 04:57:46;;;;;;;9.50;7.20;;;;;;;;;;5016325;28;20184;-82
2023/04/26 05:00:12;;;;;;;14.23;6.93;;;;;;;;;;5014446;28;20186;-82
2023/04/26 05:02:37;;;;;;;9.17;7.70;;;;;;;;;;5029215;28;20230;-78
2023/04/26 05:05:03;;;;;;;12.47;7.27;;;;;;;;;;5014008;28;20190;-77
2023/04/26 05:07:29;;;;;;;14.07;7.47;;;;;;;;;;5027320;28;20177;-77
2023/04/26 05:09:55;;;;;;;12.47;7.80;;;;;;;;;;5020197;28;20186;-77
2023/04/26 05:12:20;;;;;;;12.70;6.83;;;;;;;;;;5008213;28;20172;-77
2023/04/26 05:14:45;;;;;;;9.00;7.10;;;;;;;;;;5049333;28;20227;-77
2023/04/26 05:17:11;;;;;;;17.77;11.27;;;;;;;;;;5039463;28;20304;-77
2023/04/26 05:19:36;;;;;;;8.73;6.87;;;;;;;;;;5026967;28;20224;-77
2023/04/26 05:22:01;;;;;;;11.53;7.63;;;;;;;;;;5029962;28;20180;-77
2023/04/26 05:24:29;;;;;;;14.20;8.43;;;;;;;;;;5030733;28;20180;-77
2023/04/26 05:26:55;;;;;;;13.00;8.53;;;;;;;;;;5020038;28;20200;-77
2023/04/26 05:29:20;;;;;;;15.90;10.93;;;;;;;;;;5025857;28;20249;-76
2023/04/26 05:31:45;;;;;;;14.53;8.27;;;;;;;;;;5031491;28;20180;-76
2023/04/26 05:34:11;;;;;;;12.80;8.37;;;;;;;;;;5035263;28;20254;-77
2023/04/26 05:36:36;;;;;;;11.97;9.13;;;;;;;;;;5015659;28;20241;-76
2023/04/26 05:39:01;;;;;;;9.90;7.80;;;;;;;;;;5018907;28;20226;-77
2023/04/26 05:41:26;;;;;;;14.87;9.07;;;;;;;;;;5017273;28;20188;-77
2023/04/26 05:43:52;;;;;;;11.57;7.20;;;;;;;;;;5011435;28;20181;-77
2023/04/26 05:46:17;;;;;;;12.43;8.50;;;;;;;;;;5028834;28;20200;-77
2023/04/26 05:48:42;;;;;;;9.07;7.50;;;;;;;;;;5039215;28;20179;-77
2023/04/26 05:51:07;;;;;;;12.13;7.20;;;;;;;;;;5016516;28;20248;-77
2023/04/26 05:53:32;;;;;;;11.50;6.50;;;;;;;;;;5041880;28;20175;-77
2023/04/26 05:55:58;;;;;;;8.10;6.90;;;;;;;;;;5033015;28;20268;-77
2023/04/26 05:58:23;;;;;;;11.40;6.57;;;;;;;;;;5034055;28;20182;-77
2023/04/26 06:00:48;;;;;;;10.13;6.37;;;;;;;;;;5035049;28;20186;-76
2023/04/26 06:03:13;;;;;;;10.07;7.27;;;;;;;;;;5029757;28;20283;-77
2023/04/26 06:05:40;;;;;;;10.00;6.30;;;;;;;;;;5037165;28;20220;-77
2023/04/26 06:08:05;;;;;;;10.60;6.60;;;;;;;;;;5027003;28;20256;-77
2023/04/26 06:10:30;;;;;;;12.20;6.10;;;;;;;;;;5032087;28;20283;-76
2023/04/26 06:12:55;;;;;;;9.67;5.97;;;;;;;;;;5023804;28;20182;-77
2023/04/26 06:15:21;;;;;;;9.67;6.13;;;;;;;;;;5023737;28;20201;-77
2023/04/26 06:17:46;;;;;;;10.30;6.00;;;;;;;;;;5000107;28;20187;-77
2023/04/26 06:20:11;;;;;;;10.53;7.07;;;;;;;;;;5007618;28;20230;-77
2023/04/26 06:22:37;;;;;;;16.33;6.03;;;;;;;;;;5020190;28;20185;-77
2023/04/26 06:25:03;;;;;;;8.13;5.47;;;;;;;;;;5023332;28;20261;-77
2023/04/26 06:27:28;;;;;;;10.40;7.13;;;;;;;;;;5013034;28;20176;-77
2023/04/26 06:29:53;;;;;;;7.57;6.30;;;;;;;;;;5008649;28;20185;-77
2023/04/26 06:32:19;;;;;;;10.13;7.60;;;;;;;;;;5023798;28;20224;-77
2023/04/26 06:34:44;;;;;;;7.47;6.63;;;;;;;;;;5030375;28;20196;-77
2023/04/26 06:37:10;;;;;;;9.10;6.33;;;;;;;;;;5029375;28;20185;-77
2023/04/26 06:39:37;;;;;;;8.13;5.50;;;;;;;;;;5037794;28;20204;-77
2023/04/26 06:42:02;;;;;;;8.37;5.30;;;;;;;;;;5022413;28;20230;-77
2023/04/26 06:44:27;;;;;;;10.23;5.33;;;;;;;;;;5032625;28;20190;-77
2023/04/26 06:46:54;;;;;;;6.83;6.07;;;;;;;;;;5003085;28;20235;-77
2023/04/26 06:49:19;;;;;;;8.83;5.40;;;;;;;;;;5013280;28;20229;-77
2023/04/26 06:51:44;;;;;;;8.33;5.97;;;;;;;;;;5025491;28;20186;-77
2023/04/26 06:54:11;;;;;;;10.03;6.00;;;;;;;;;;5031044;28;20170;-77
2023/04/26 06:56:36;;;;;;;7.50;6.17;;;;;;;;;;5018683;28;20196;-77
2023/04/26 06:59:02;;;;;;;10.47;6.13;;;;;;;;;;5015898;28;20201;-76
2023/04/26 07:01:28;;;;;;;9.60;5.83;;;;;;;;;;5013246;28;20203;-77
2023/04/26 07:03:56;;;;;;;9.07;6.20;;;;;;;;;;5012629;28;20198;-77
2023/04/26 07:06:22;;;;;;;10.80;5.90;;;;;;;;;;5018383;28;20208;-77
2023/04/26 07:08:47;;;;;;;8.73;5.47;;;;;;;;;;5035237;28;20181;-77
2023/04/26 07:11:12;;;;;;;8.17;5.50;;;;;;;;;;5016704;28;20185;-77
2023/04/26 07:13:37;;;;;;;7.00;5.83;;;;;;;;;;5034607;28;20192;-77
2023/04/26 07:16:03;;;;;;;11.23;5.77;;;;;;;;;;5028919;28;20198;-77
2023/04/26 07:18:28;;;;;;;11.17;5.60;;;;;;;;;;5020682;28;20276;-77
2023/04/26 07:20:54;;;;;;;10.03;5.80;;;;;;;;;;4998004;28;20325;-77
2023/04/26 07:23:19;;;;;;;12.87;5.60;;;;;;;;;;4995231;28;20178;-77
2023/04/26 07:25:44;;;;;;;9.43;5.63;;;;;;;;;;4991079;28;20240;-77
2023/04/26 07:28:10;;;;;;;10.87;6.60;;;;;;;;;;4994449;28;20221;-77
2023/04/26 07:30:35;;;;;;;7.90;5.57;;;;;;;;;;5011987;28;20170;-77
2023/04/26 07:33:00;;;;;;;9.10;5.63;;;;;;;;;;4992335;28;20176;-77
2023/04/26 07:35:26;;;;;;;9.00;6.13;;;;;;;;;;4989644;28;20253;-77
2023/04/26 07:37:51;;;;;;;6.93;6.10;;;;;;;;;;5006625;28;20224;-77
2023/04/26 07:40:17;;;;;;;10.23;6.17;;;;;;;;;;4990814;28;20190;-77
2023/04/26 07:42:42;;;;;;;7.97;5.80;;;;;;;;;;5007720;28;20221;-77
2023/04/26 07:45:08;;;;;;;6.87;4.77;;;;;;;;;;5010136;28;20231;-77
2023/04/26 07:47:33;;;;;;;6.83;5.47;;;;;;;;;;4994963;28;20215;-77
2023/04/26 07:49:58;;;;;;;7.70;5.63;;;;;;;;;;5010315;28;20178;-77
2023/04/26 07:52:24;;;;;;;7.53;5.27;;;;;;;;;;5012624;28;20236;-77
2023/04/26 07:54:49;;;;;;;6.40;5.40;;;;;;;;;;5007307;28;20168;-78
2023/04/26 07:57:15;;;;;;;10.20;5.43;;;;;;;;;;4995424;28;20175;-77
2023/04/26 07:59:40;;;;;;;10.60;6.93;;;;;;;;;;5010882;28;20182;-77
2023/04/26 08:02:06;;;;;;;6.63;5.73;;;;;;;;;;4993438;28;20222;-77
2023/04/26 08:04:35;;;;;;;7.73;5.37;;;;;;;;;;5007359;28;20216;-78
2023/04/26 08:07:01;;;;;;;7.30;5.37;;;;;;;;;;4988724;28;20315;-77
2023/04/26 08:09:26;;;;;;;9.00;5.13;;;;;;;;;;5008987;28;20206;-77
2023/04/26 08:11:52;;;;;;;9.33;5.70;;;;;;;;;;4996813;28;20182;-78
2023/04/26 08:14:17;;;;;;;8.60;5.83;;;;;;;;;;4995279;28;20180;-78
2023/04/26 08:16:42;;;;;;;8.70;5.43;;;;;;;;;;4995163;28;20188;-77
2023/04/26 08:19:08;;;;;;;8.37;5.13;;;;;;;;;;4992748;28;20275;-77
2023/04/26 08:21:33;;;;;;;12.57;5.20;;;;;;;;;;5017136;28;20191;-78
2023/04/26 08:23:58;;;;;;;10.40;5.40;;;;;;;;;;5020576;28;20179;-78
2023/04/26 08:26:23;;;;;;;5.87;5.27;;;;;;;;;;5019940;28;20202;-78
2023/04/26 08:28:48;;;;;;;8.63;5.60;;;;;;;;;;5026580;28;20211;-78
2023/04/26 08:31:14;;;;;;;7.93;5.53;;;;;;;;;;5037076;28;20188;-78
2023/04/26 08:33:39;;;;;;;7.20;5.13;;;;;;;;;;5010910;28;20173;-77
2023/04/26 08:36:04;;;;;;;9.07;5.13;;;;;;;;;;5040149;28;20240;-78
2023/04/26 08:38:31;;;;;;;8.90;5.87;;;;;;;;;;5036918;28;20166;-77
2023/04/26 08:40:57;;;;;;;9.80;5.57;;;;;;;;;;5041168;28;20177;-77
2023/04/26 08:43:23;;;;;;;8.43;4.50;;;;;;;;;;5019558;28;20175;-78
2023/04/26 08:45:49;;;;;;;9.77;5.27;;;;;;;;;;5014619;28;20198;-78
2023/04/26 08:48:16;;;;;;;7.33;4.73;;;;;;;;;;5020513;28;20180;-78
2023/04/26 08:50:42;;;;;;;8.93;4.73;;;;;;;;;;5017365;28;20178;-78
2023/04/26 08:53:08;;;;;;;10.87;5.60;;;;;;;;;;5034234;28;20186;-77
2023/04/26 08:55:34;;;;;;;8.93;5.53;;;;;;;;;;5037558;28;20175;-78
2023/04/26 08:58:00;;;;;;;5.90;5.03;;;;;;;;;;5041291;28;20181;-77
2023/04/26 09:00:26;;;;;;;6.47;5.07;;;;;;;;;;5034046;28;20169;-77
2023/04/26 09:02:51;;;;;;;7.57;4.67;;;;;;;;;;5035783;28;20199;-78
2023/04/26 09:05:22;;;;;;;8.63;7.73;;;;;;;;;;5016855;28;20210;-77
2023/04/26 09:07:48;;;;;;;7.67;5.47;;;;;;;;;;5018617;28;20184;-78
2023/04/26 09:10:18;;;;;;;10.70;5.30;;;;;;;;;;5027436;28;20175;-78
2023/04/26 09:12:43;;;;;;;6.63;4.97;;;;;;;;;;5012542;28;20175;-78
2023/04/26 09:15:11;;;;;;;5.20;4.27;;;;;;;;;;5031741;28;20266;-78
2023/04/26 09:17:37;;;;;;;9.50;4.23;;;;;;;;;;5022363;28;20268;-78
2023/04/26 09:20:18;;;;;;;4.93;4.20;;;;;;;;;;5007319;28;20288;-78
2023/04/26 09:22:45;;;;;;;4.47;4.07;;;;;;;;;;5027023;28;20174;-78
2023/04/26 09:25:10;;;;;;;10.17;4.70;;;;;;;;;;5005676;28;20176;-78
2023/04/26 09:27:37;;;;;;;7.87;4.43;;;;;;;;;;5042718;28;20194;-78
2023/04/26 09:30:08;;;;;;;6.57;4.77;;;;;;;;;;5011368;28;20175;-78
2023/04/26 09:32:45;;;;;;;6.47;5.40;;;;;;;;;;5028715;28;20325;-78
2023/04/26 09:35:29;;;;;;;9.03;4.67;;;;;;;;;;5031839;28;20184;-76
2023/04/26 09:38:02;;;;;;;6.17;4.00;;;;;;;;;;5027413;28;20251;-76
2023/04/26 09:40:28;;;;;;;5.50;3.80;;;;;;;;;;5033573;28;20183;-76
2023/04/26 09:42:57;;;;;;;8.07;4.23;;;;;;;;;;5027178;28;20229;-76
2023/04/26 09:45:23;;;;;;;6.27;4.67;;;;;;;;;;5016616;28;20198;-76
2023/04/26 09:47:48;;;;;;;9.00;4.90;;;;;;;;;;5006049;28;20193;-76
2023/04/26 09:50:24;;;;;;;8.33;4.53;;;;;;;;;;5019410;28;20178;-76
2023/04/26 09:52:49;;;;;;;6.03;4.40;;;;;;;;;;5014292;28;20167;-76
2023/04/26 09:55:25;;;;;;;6.77;4.47;;;;;;;;;;5018344;28;20187;-76
2023/04/26 09:57:50;;;;;;;6.97;4.27;;;;;;;;;;5026452;28;20282;-76
2023/04/26 10:00:16;;;;;;;7.80;4.63;;;;;;;;;;5035203;28;20266;-76
2023/04/26 10:02:41;;;;;;;5.83;4.20;;;;;;;;;;5026132;28;20288;-76
2023/04/26 10:05:07;;;;;;;5.43;4.93;;;;;;;;;;5020793;28;20177;-77
2023/04/26 10:07:33;;;;;;;9.37;7.87;;;;;;;;;;5014130;28;20172;-76
2023/04/26 10:09:58;;;;;;;6.67;5.50;;;;;;;;;;5025591;28;20193;-76
2023/04/26 10:12:23;;;;;;;6.97;4.13;;;;;;;;;;5028229;28;20255;-76
2023/04/26 10:14:49;;;;;;;4.83;4.17;;;;;;;;;;5031479;28;20178;-76
2023/04/26 10:17:15;;;;;;;8.47;4.40;;;;;;;;;;5016189;28;20181;-76
2023/04/26 10:19:45;;;;;;;7.63;4.13;;;;;;;;;;5007660;28;20310;-76
2023/04/26 10:22:15;;;;;;;9.17;4.30;;;;;;;;;;5028049;28;20178;-76
2023/04/26 10:24:42;;;;;;;9.07;4.43;;;;;;;;;;5010056;28;20188;-76
2023/04/26 10:27:07;;;;;;;5.70;3.80;;;;;;;;;;5031277;28;20288;-76
2023/04/26 10:29:58;;;;;;;9.13;4.13;;;;;;;;;;5036760;28;20214;-76
2023/04/26 10:32:23;;;;;;;7.20;4.23;;;;;;;;;;5016620;28;20180;-76
2023/04/26 10:35:07;;;;;;;5.43;4.27;;;;;;;;;;5022482;28;20193;-76
2023/04/26 10:37:32;;;;;;;5.63;3.80;;;;;;;;;;5016502;28;20194;-76
2023/04/26 10:40:17;;;;;;;7.00;4.03;;;;;;;;;;5032971;28;20221;-76
2023/04/26 10:42:42;;;;;;;5.83;4.13;;;;;;;;;;5020906;28;20236;-76
2023/04/26 10:45:24;;;;;;;5.23;3.80;;;;;;;;;;5019518;28;20181;-76
2023/04/26 10:47:57;;;;;;;7.23;3.83;;;;;;;;;;5000263;28;20174;-76
2023/04/26 10:50:22;;;;;;;4.63;3.60;;;;;;;;;;5003433;28;20168;-76
2023/04/26 10:53:07;;;;;;;8.33;3.80;;;;;;;;;;5014021;28;20182;-75
2023/04/26 10:55:42;;;;;;;5.87;3.93;;;;;;;;;;5001375;28;20262;-76
2023/04/26 10:58:29;;;;;;;5.93;4.00;;;;;;;;;;5013320;28;20183;-76
2023/04/26 11:01:03;;;;;;;5.83;3.80;;;;;;;;;;5029359;28;20201;-76
2023/04/26 11:03:29;;;;;;;4.83;4.00;;;;;;;;;;5022981;28;20186;-76
2023/04/26 11:05:54;;;;;;;4.60;4.17;;;;;;;;;;5032355;28;20274;-76
2023/04/26 11:08:23;;;;;;;7.00;4.10;;;;;;;;;;5039271;28;20172;-76
2023/04/26 11:11:09;;;;;;;6.83;3.47;;;;;;;;;;5002180;28;20183;-76
2023/04/26 11:13:38;;;;;;;4.97;3.73;;;;;;;;;;5022719;28;20179;-76
2023/04/26 11:16:05;;;;;;;4.93;3.50;;;;;;;;;;5031632;28;20188;-76
2023/04/26 11:18:34;;;;;;;5.53;3.57;;;;;;;;;;5017385;28;20174;-76
2023/04/26 11:20:59;;;;;;;6.87;4.03;;;;;;;;;;5031019;28;20236;-76
2023/04/26 11:23:26;;;;;;;4.77;3.90;;;;;;;;;;5032225;28;20191;-76
2023/04/26 11:25:53;;;;;;;4.20;3.63;;;;;;;;;;5011301;28;20296;-76
2023/04/26 11:28:19;;;;;;;6.20;4.07;;;;;;;;;;5029972;28;20292;-76
2023/04/26 11:30:44;;;;;;;3.97;3.43;;;;;;;;;;5014928;28;20176;-76
2023/04/26 11:33:17;;;;;;;5.97;3.63;;;;;;;;;;5008127;28;20170;-76
2023/04/26 11:35:43;;;;;;;6.83;3.87;;;;;;;;;;5030293;28;20189;-76
2023/04/26 11:38:08;;;;;;;5.53;3.53;;;;;;;;;;5035079;28;20299;-76
2023/04/26 11:40:36;;;;;;;4.23;3.83;;;;;;;;;;5019364;28;20177;-76
2023/04/26 11:43:04;;;;;;;4.37;3.10;;;;;;;;;;5013010;28;20189;-76
2023/04/26 11:45:34;;;;;;;6.40;3.60;;;;;;;;;;5003835;28;20246;-76
2023/04/26 11:48:00;;;;;;;3.57;3.03;;;;;;;;;;5010091;28;20251;-76
2023/04/26 11:50:26;;;;;;;4.17;3.73;;;;;;;;;;5032636;28;20257;-76
2023/04/26 11:52:53;;;;;;;5.30;3.30;;;;;;;;;;5028491;28;20273;-76
2023/04/26 11:55:28;;;;;;;5.13;3.30;;;;;;;;;;5021002;28;20235;-76
2023/04/26 11:57:53;;;;;;;7.10;4.37;;;;;;;;;;5006791;28;20200;-76
2023/04/26 12:00:20;;;;;;;8.03;3.50;;;;;;;;;;5018711;28;20182;-76
2023/04/26 12:02:45;;;;;;;4.13;3.50;;;;;;;;;;5013438;28;20208;-76
2023/04/26 12:05:19;;;;;;;6.63;3.40;;;;;;;;;;5041982;28;20181;-76
2023/04/26 12:07:48;;;;;;;10.97;7.67;;;;;;;;;;5035443;28;20197;-76
2023/04/26 12:10:16;;;;;;;8.10;7.37;;;;;;;;;;5032798;28;20260;-76
2023/04/26 12:12:50;;;;;;;5.43;3.50;;;;;;;;;;5022186;28;20181;-76
2023/04/26 12:15:28;;;;;;;4.83;3.00;;;;;;;;;;5027091;28;20170;-76
2023/04/26 12:17:54;;;;;;;6.57;3.30;;;;;;;;;;5031675;28;20186;-76
2023/04/26 12:20:27;;;;;;;4.73;3.27;;;;;;;;;;5027690;28;20226;-76
2023/04/26 12:22:56;;;;;;;5.60;3.50;;;;;;;;;;5024397;28;20177;-76
2023/04/26 12:25:21;;;;;;;3.47;3.17;;;;;;;;;;5024537;28;20304;-77
2023/04/26 12:27:47;;;;;;;5.60;3.30;;;;;;;;;;5021812;28;20265;-76
2023/04/26 12:30:12;;;;;;;4.53;3.20;;;;;;;;;;5037223;28;20193;-76
2023/04/26 12:32:37;;;;;;;3.60;3.30;;;;;;;;;;5028974;28;20207;-77
2023/04/26 12:35:02;;;;;;;5.77;3.37;;;;;;;;;;5015786;28;20191;-77
2023/04/26 12:37:28;;;;;;;4.37;3.37;;;;;;;;;;5012677;28;20178;-76
2023/04/26 12:39:53;;;;;;;3.73;3.10;;;;;;;;;;5020613;28;20174;-76
2023/04/26 12:42:21;;;;;;;4.83;3.73;;;;;;;;;;5021946;28;20178;-76
2023/04/26 12:44:46;;;;;;;4.07;3.67;;;;;;;;;;5028314;28;20234;-76
2023/04/26 12:47:12;;;;;;;5.73;3.20;;;;;;;;;;5025449;28;20298;-76
2023/04/26 12:49:37;;;;;;;5.67;3.07;;;;;;;;;;5020701;28;20193;-76
2023/04/26 12:52:03;;;;;;;4.73;3.23;;;;;;;;;;5016523;28;20176;-76
2023/04/26 12:54:28;;;;;;;3.17;2.83;;;;;;;;;;5039373;28;20241;-76
2023/04/26 12:56:53;;;;;;;5.97;3.33;;;;;;;;;;5032957;28;20179;-76
2023/04/26 12:59:18;;;;;;;3.57;2.97;;;;;;;;;;5036289;28;20201;-77
2023/04/26 13:01:44;;;;;;;3.17;2.97;;;;;;;;;;5028454;28;20186;-76
2023/04/26 13:04:09;;;;;;;4.50;3.07;;;;;;;;;;5030646;28;20185;-77
2023/04/26 13:06:34;;;;;;;3.57;3.27;;;;;;;;;;5038273;28;20207;-77
2023/04/26 13:09:00;;;;;;;4.53;3.50;;;;;;;;;;5020768;28;20249;-77
2023/04/26 13:11:25;;;;;;;7.07;2.90;;;;;;;;;;5027993;28;20241;-77
2023/04/26 13:13:50;;;;;;;3.10;2.80;;;;;;;;;;5011108;28;20185;-76
2023/04/26 13:16:16;;;;;;;4.53;2.50;;;;;;;;;;5027073;28;20184;-77
2023/04/26 13:18:41;;;;;;;3.37;3.07;;;;;;;;;;5025396;28;20182;-76
2023/04/26 13:21:06;;;;;;;4.50;3.30;;;;;;;;;;5009774;28;20383;-76
2023/04/26 13:23:31;;;;;;;3.67;2.77;;;;;;;;;;4998845;28;20171;-77
2023/04/26 13:25:56;;;;;;;4.20;3.33;;;;;;;;;;5009451;28;20202;-76
2023/04/26 13:28:35;;;;;;;3.87;2.70;;;;;;;;;;5124366;27;20575;-81
2023/04/26 13:31:00;;;;;;;4.27;3.03;;;;;;;;;;5087768;28;20188;-75
2023/04/26 13:33:26;;;;;;;3.23;2.90;;;;;;;;;;5085977;28;20177;-75
2023/04/26 13:35:51;;;;;;;5.73;3.10;;;;;;;;;;5087472;28;20195;-75
2023/04/26 13:38:16;;;;;;;3.20;2.83;;;;;;;;;;5108564;28;20204;-75
2023/04/26 13:40:44;;;;;;;6.90;3.83;;;;;;;;;;5086098;28;20242;-76
2023/04/26 13:43:10;;;;;;;4.03;2.83;;;;;;;;;;5103334;28;20177;-75
2023/04/26 13:45:35;;;;;;;6.00;2.77;;;;;;;;;;5081417;28;20242;-75
2023/04/26 13:48:00;;;;;;;4.37;2.70;;;;;;;;;;5085204;28;20216;-75
2023/04/26 13:50:25;;;;;;;3.37;2.43;;;;;;;;;;5088072;28;20215;-76
2023/04/26 13:52:51;;;;;;;3.03;2.70;;;;;;;;;;5086757;28;20175;-76
2023/04/26 13:55:17;;;;;;;3.30;2.87;;;;;;;;;;5094452;28;20453;-75
2023/04/26 13:57:42;;;;;;;4.10;3.00;;;;;;;;;;5089132;28;20208;-75
2023/04/26 14:00:07;;;;;;;4.63;3.70;;;;;;;;;;5085139;28;20211;-76
2023/04/26 14:02:33;;;;;;;5.93;2.50;;;;;;;;;;5092965;28;20197;-76
2023/04/26 14:04:58;;;;;;;6.80;2.97;;;;;;;;;;5096949;28;20176;-76
2023/04/26 14:07:24;;;;;;;2.67;2.47;;;;;;;;;;5123110;27;20264;-76
2023/04/26 14:09:49;;;;;;;3.13;2.80;;;;;;;;;;5095720;28;20221;-76
2023/04/26 14:12:15;;;;;;;2.67;2.43;;;;;;;;;;5099125;28;20201;-76
2023/04/26 14:14:40;;;;;;;4.17;2.40;;;;;;;;;;5097695;28;20182;-76
2023/04/26 14:17:06;;;;;;;3.00;2.70;;;;;;;;;;5098023;28;20184;-75
2023/04/26 14:19:31;;;;;;;3.93;3.30;;;;;;;;;;5094695;28;20213;-76
2023/04/26 14:21:56;;;;;;;4.90;2.30;;;;;;;;;;5094299;28;20198;-76
2023/04/26 14:24:21;;;;;;;3.63;2.73;;;;;;;;;;5098737;28;20273;-76
2023/04/26 14:26:46;;;;;;;2.97;2.67;;;;;;;;;;5104814;28;20232;-76
2023/04/26 14:29:12;;;;;;;3.27;2.93;;;;;;;;;;5104718;28;20194;-75
2023/04/26 14:31:37;;;;;;;4.13;3.30;;;;;;;;;;5103386;28;20190;-76
2023/04/26 14:34:02;;;;;;;3.57;2.87;;;;;;;;;;5098016;28;20179;-76
2023/04/26 14:36:27;;;;;;;4.57;2.73;;;;;;;;;;5102105;28;20177;-76